Airfield :
LOGIN :

Register | Disclaimer

   EN    FR    IT 

 










Legend :    VFR   Marginal VFR   IFR   Intensive IFR   Very Intensive IFR
Visi :
Ceiling :
>= 8 km
>= 3000ft
5 to 8 km
1000 to 3000 ft
1500m to 5 km
500 to 1000 ft
800 to 1500m
200 to 500 ft
< 800m
< 200 ft
Symbols :   Thunderstorms  Fog  Heavy snow  Heavy precipitations  Wind > 20 kt
SIGMETs :     Misc.  Thunderstorms  Icing  Turbulence  Mountain Waves  Volcanic Ashes







- Airport Elevation : 287 ft
- Download approach charts


LFRL - Lanveoc Poulmic

CURRENT METAR :
  • 111730Z AUTO 17012KT 9999 BKN022 OVC210 10/07 Q1019 BECMG 2000 RA BKN005 OVC010

EXPIRED METARs :
  • 111700Z AUTO 15010KT 120V180 9999 BKN020 BKN180 OVC200 10/07 Q1019 BECMG 2000 RA BKN005 OVC010
  • 111630Z AUTO 15012KT 9999 BKN021 OVC180 10/07 Q1019 BECMG 2000 RA BKN005 OVC010
  • 111600Z AUTO 16012KT 9999 OVC020 10/07 Q1019 BECMG BKN014
  • 111530Z AUTO 16012KT 9999 OVC019 10/07 Q1020 BECMG BKN014
  • 111500Z AUTO 16013KT 9999 BKN020 10/06 Q1020 BECMG BKN014

TAF TAF LFRL
Valid from the 11 at 12:00 until the 12 at 12:00 UTC


111100Z 1112/1212 14010G20KT 9999 FEW012 BKN023
BECMG 1114/1116 BKN014
BECMG 1118/1120 2000 RA BKN005 OVC010
TEMPO 1121/1212 1000 RA BKN002
BECMG 1200/1203 13005KT
No reported NOTAMs for that airfield.



MET'MAP, your aeronautical weather chart ! - Copyright ORBIFLY December 2007 - Disclaimer

ORBIFLY MET'MAP TEAM :

Programming & Development : Alexandra Zaïnal
Concept & Development : Baudouin d'Aumeries
Co-Development & Prog : Marc-Olivier Méhu
Technical & hardware support : Manuel Goepfert

Contact : metmap@orbifly.com




SOURCES & CREDITS :

   NOAA